Cm Italia — V7TY9 — position and weather

sailwx.info

Track history (hours):
 
Tides and Currents Weather Stations Pressure Air Temp Water Temp Dewpoint Dewpoint Depression Visibility Wind Speed Wind Dir Waves Ship Positions

Cm Italia

Last reported at 2018-Apr-19 06:51 UTC. Time now 2018-Apr-24 05:07 UTC.
Position N 31°01' E 032°19'.

Length 65 m; draft 4.8 m.

Type: Tug. MMSI: 538003909.

Date/timePositionNaut miles runAvg speedWind from/ knotsBaromVisibWave heightAir tempDewpointWater temp
2018-Apr-19 06:51N 31°01' E 032°19'3 8.2
2018-Apr-19 06:30N 31°04' E 032°19'4 8.4
2018-Apr-19 06:00N 31°08' E 032°19'15 8.1
2018-Apr-19 04:07N 31°23' E 032°23'1 7.3
2018-Apr-19 04:00N 31°24' E 032°23'3 1.7
2018-Apr-19 02:21N 31°23' E 032°19'0 0.1
2018-Apr-19 01:56N 31°22' E 032°19'0 0.0
2018-Apr-19 00:37N 31°22' E 032°19'0 0.0
2018-Apr-18 23:38N 31°22' E 032°19'0 0.0
2018-Apr-18 23:31N 31°22' E 032°19'0 0.0
2018-Apr-18 23:00N 31°22' E 032°19'0 0.0
2018-Apr-18 22:30N 31°22' E 032°19'0 0.0
2018-Apr-18 22:00N 31°22' E 032°19'0 0.0
2018-Apr-18 21:31N 31°22' E 032°19'0 0.0
2018-Apr-18 21:00N 31°22' E 032°19'0 0.0
2018-Apr-18 20:30N 31°22' E 032°19'0 0.0
2018-Apr-18 19:18N 31°22' E 032°19'0 0.0
2018-Apr-18 18:03N 31°22' E 032°19'0 0.1
2018-Apr-18 17:59N 31°22' E 032°19'0 0.0
2018-Apr-18 17:30N 31°22' E 032°19'0 0.0
2018-Apr-18 17:00N 31°22' E 032°19'0 0.0
2018-Apr-18 16:31N 31°22' E 032°19'0 0.0
2018-Apr-18 16:01N 31°23' E 032°19'0 0.0
2018-Apr-18 15:11N 31°23' E 032°19'0 0.1
2018-Apr-18 15:00N 31°23' E 032°19'0 0.0
2018-Apr-18 14:27N 31°23' E 032°19'0 0.0
2018-Apr-18 14:00N 31°23' E 032°19'0 0.0
2018-Apr-18 13:30N 31°23' E 032°19'0 0.0
2018-Apr-18 13:01N 31°23' E 032°19'0 0.0
2018-Apr-18 12:29N 31°23' E 032°19'0 0.0
2018-Apr-18 12:00N 31°23' E 032°19'0 0.0
2018-Apr-18 11:30N 31°23' E 032°19'0 0.0
2018-Apr-18 11:00N 31°23' E 032°19'0 0.0
2018-Apr-18 10:28N 31°23' E 032°19'0 0.0
2018-Apr-18 10:00N 31°23' E 032°19'0 0.0
2018-Apr-18 09:29N 31°23' E 032°19'0 0.0
2018-Apr-18 08:53N 31°23' E 032°19'0 0.0
2018-Apr-18 08:30N 31°23' E 032°19'0 0.0
2018-Apr-18 08:00N 31°23' E 032°19'0 0.0
2018-Apr-18 07:30N 31°23' E 032°19'0 0.0
2018-Apr-18 06:35N 31°23' E 032°19'0 0.0
2018-Apr-18 06:30N 31°23' E 032°19'0 0.0
2018-Apr-18 05:46N 31°23' E 032°19'0 0.1
2018-Apr-18 05:30N 31°23' E 032°19'0 0.0
2018-Apr-18 05:00N 31°23' E 032°19'1 1.3
2018-Apr-18 04:30N 31°23' E 032°19'4 7.9
2018-Apr-18 04:00N 31°27' E 032°17'510.9
2018-Apr-18 03:30N 31°31' E 032°13'511.0
2018-Apr-18 03:00N 31°35' E 032°08'511.0
2018-Apr-18 02:30N 31°39' E 032°04'611.0
2018-Apr-18 01:59N 31°43' E 031°59'511.1
2018-Apr-18 01:30N 31°47' E 031°55'611.2
2018-Apr-18 01:00N 31°51' E 031°51'611.1
2018-Apr-18 00:30N 31°55' E 031°46'611.1
2018-Apr-18 00:00N 31°59' E 031°42'711.1
2018-Apr-17 23:23N 32°04' E 031°36'511.2
2018-Apr-17 22:59N 32°08' E 031°33'611.2
2018-Apr-17 22:26N 32°12' E 031°28'811.6
2018-Apr-17 21:44N 32°18' E 031°21'311.6
2018-Apr-17 21:30N 32°20' E 031°19'811.5
2018-Apr-17 20:49N 32°26' E 031°13'411.5
2018-Apr-17 20:30N 32°29' E 031°10'611.5
2018-Apr-17 20:00N 32°33' E 031°06'611.4
2018-Apr-17 19:30N 32°37' E 031°01'611.4
2018-Apr-17 18:57N 32°42' E 030°56'911.5
2018-Apr-17 18:09N 32°48' E 030°48'211.6
2018-Apr-17 18:00N 32°50' E 030°47'611.7
2018-Apr-17 17:30N 32°54' E 030°43'611.5
2018-Apr-17 17:00N 32°58' E 030°38'711.2
2018-Apr-17 16:23N 33°03' E 030°32'411.2
2018-Apr-17 16:00N 33°07' E 030°29'811.3
2018-Apr-17 15:20N 33°12' E 030°23'411.3
2018-Apr-17 15:00N 33°15' E 030°20'611.3
2018-Apr-17 14:30N 33°19' E 030°15'611.4
2018-Apr-17 14:00N 33°23' E 030°11'611.3
2018-Apr-17 13:30N 33°27' E 030°06'611.2
2018-Apr-17 13:00N 33°32' E 030°02'511.2
2018-Apr-17 12:30N 33°36' E 029°57'611.1
2018-Apr-17 12:00N 33°40' E 029°53'1711.0
2018-Apr-17 10:30N 33°52' E 029°39'510.8
2018-Apr-17 10:00N 33°56' E 029°35'510.9
2018-Apr-17 09:30N 33°60' E 029°30'611.1
2018-Apr-17 09:00N 34°04' E 029°26'611.1
2018-Apr-17 08:30N 34°08' E 029°22'1511.3
2018-Apr-17 07:12N 34°19' E 029°10'211.4
2018-Apr-17 07:00N 34°21' E 029°08'611.2
2018-Apr-17 06:30N 34°25' E 029°03'23811.0
2018-Apr-16 08:51N 37°28' E 025°56'411.6
2018-Apr-16 08:30N 37°32' E 025°54'612.0
2018-Apr-16 08:00N 37°38' E 025°53'14211.2
2018-Apr-15 19:15N 40°01' E 026°03'  
2018-Apr-10 15:22N 45°04' E 030°54'411.4
2018-Apr-10 14:59N 45°08' E 030°56'3111.4
2018-Apr-10 12:16N 45°39' E 031°04'311.4
2018-Apr-10 12:00N 45°42' E 031°04'1111.4
2018-Apr-10 11:03N 45°53' E 031°04'211.5
2018-Apr-10 10:51N 45°55' E 031°04'411.6
2018-Apr-10 10:30N 45°59' E 031°04'911.2
2018-Apr-10 09:44N 46°08' E 031°04'211.2
2018-Apr-10 09:30N 46°09' E 031°01'611.3
2018-Apr-10 09:00N 46°14' E 030°56'1010.7
2018-Apr-10 08:02N 46°24' E 030°55'010.9
2018-Apr-10 08:00N 46°24' E 030°55'611.2
2018-Apr-10 07:30N 46°30' E 030°56'17 7.1
2018-Apr-10 05:06N 46°35' E 031°19'0 0.1
2018-Apr-10 04:51N 46°35' E 031°19'0 0.0
2018-Apr-10 03:21N 46°35' E 031°19'0 0.0
2018-Apr-10 03:00N 46°35' E 031°19'0 0.0
2018-Apr-10 02:21N 46°35' E 031°19'0 0.0
2018-Apr-10 01:57N 46°35' E 031°19'0 0.0
2018-Apr-10 01:27N 46°35' E 031°19'0 0.0
2018-Apr-09 22:27N 46°35' E 031°19'  
Track history (hours):
 
Tides and Currents Weather Stations Pressure Air Temp Water Temp Dewpoint Dewpoint Depression Visibility Wind Speed Wind Dir Waves Ship Positions

Cm Italia

Last reported at 2018-Apr-19 06:51 UTC. Time now 2018-Apr-24 05:07 UTC.
Position N 31°01' E 032°19'.

Length 65 m; draft 4.8 m.

Type: Tug. MMSI: 538003909.

Date/timePositionNaut miles runAvg speedWind from/ knotsBaromVisibWave heightAir tempDewpointWater temp
2018-Apr-19 06:51N 31°01' E 032°19'3 8.2
2018-Apr-19 06:30N 31°04' E 032°19'4 8.4
2018-Apr-19 06:00N 31°08' E 032°19'15 8.1
2018-Apr-19 04:07N 31°23' E 032°23'1 7.3
2018-Apr-19 04:00N 31°24' E 032°23'3 1.7
2018-Apr-19 02:21N 31°23' E 032°19'0 0.1
2018-Apr-19 01:56N 31°22' E 032°19'0 0.0
2018-Apr-19 00:37N 31°22' E 032°19'0 0.0
2018-Apr-18 23:38N 31°22' E 032°19'0 0.0
2018-Apr-18 23:31N 31°22' E 032°19'0 0.0
2018-Apr-18 23:00N 31°22' E 032°19'0 0.0
2018-Apr-18 22:30N 31°22' E 032°19'0 0.0
2018-Apr-18 22:00N 31°22' E 032°19'0 0.0
2018-Apr-18 21:31N 31°22' E 032°19'0 0.0
2018-Apr-18 21:00N 31°22' E 032°19'0 0.0
2018-Apr-18 20:30N 31°22' E 032°19'0 0.0
2018-Apr-18 19:18N 31°22' E 032°19'0 0.0
2018-Apr-18 18:03N 31°22' E 032°19'0 0.1
2018-Apr-18 17:59N 31°22' E 032°19'0 0.0
2018-Apr-18 17:30N 31°22' E 032°19'0 0.0
2018-Apr-18 17:00N 31°22' E 032°19'0 0.0
2018-Apr-18 16:31N 31°22' E 032°19'0 0.0
2018-Apr-18 16:01N 31°23' E 032°19'0 0.0
2018-Apr-18 15:11N 31°23' E 032°19'0 0.1
2018-Apr-18 15:00N 31°23' E 032°19'0 0.0
2018-Apr-18 14:27N 31°23' E 032°19'0 0.0
2018-Apr-18 14:00N 31°23' E 032°19'0 0.0
2018-Apr-18 13:30N 31°23' E 032°19'0 0.0
2018-Apr-18 13:01N 31°23' E 032°19'0 0.0
2018-Apr-18 12:29N 31°23' E 032°19'0 0.0
2018-Apr-18 12:00N 31°23' E 032°19'0 0.0
2018-Apr-18 11:30N 31°23' E 032°19'0 0.0
2018-Apr-18 11:00N 31°23' E 032°19'0 0.0
2018-Apr-18 10:28N 31°23' E 032°19'0 0.0
2018-Apr-18 10:00N 31°23' E 032°19'0 0.0
2018-Apr-18 09:29N 31°23' E 032°19'0 0.0
2018-Apr-18 08:53N 31°23' E 032°19'0 0.0
2018-Apr-18 08:30N 31°23' E 032°19'0 0.0
2018-Apr-18 08:00N 31°23' E 032°19'0 0.0
2018-Apr-18 07:30N 31°23' E 032°19'0 0.0
2018-Apr-18 06:35N 31°23' E 032°19'0 0.0
2018-Apr-18 06:30N 31°23' E 032°19'0 0.0
2018-Apr-18 05:46N 31°23' E 032°19'0 0.1
2018-Apr-18 05:30N 31°23' E 032°19'0 0.0
2018-Apr-18 05:00N 31°23' E 032°19'1 1.3
2018-Apr-18 04:30N 31°23' E 032°19'4 7.9
2018-Apr-18 04:00N 31°27' E 032°17'510.9
2018-Apr-18 03:30N 31°31' E 032°13'511.0
2018-Apr-18 03:00N 31°35' E 032°08'511.0
2018-Apr-18 02:30N 31°39' E 032°04'611.0
2018-Apr-18 01:59N 31°43' E 031°59'511.1
2018-Apr-18 01:30N 31°47' E 031°55'611.2
2018-Apr-18 01:00N 31°51' E 031°51'611.1
2018-Apr-18 00:30N 31°55' E 031°46'611.1
2018-Apr-18 00:00N 31°59' E 031°42'711.1
2018-Apr-17 23:23N 32°04' E 031°36'511.2
2018-Apr-17 22:59N 32°08' E 031°33'611.2
2018-Apr-17 22:26N 32°12' E 031°28'811.6
2018-Apr-17 21:44N 32°18' E 031°21'311.6
2018-Apr-17 21:30N 32°20' E 031°19'811.5
2018-Apr-17 20:49N 32°26' E 031°13'411.5
2018-Apr-17 20:30N 32°29' E 031°10'611.5
2018-Apr-17 20:00N 32°33' E 031°06'611.4
2018-Apr-17 19:30N 32°37' E 031°01'611.4
2018-Apr-17 18:57N 32°42' E 030°56'911.5
2018-Apr-17 18:09N 32°48' E 030°48'211.6
2018-Apr-17 18:00N 32°50' E 030°47'611.7
2018-Apr-17 17:30N 32°54' E 030°43'611.5
2018-Apr-17 17:00N 32°58' E 030°38'711.2
2018-Apr-17 16:23N 33°03' E 030°32'411.2
2018-Apr-17 16:00N 33°07' E 030°29'811.3
2018-Apr-17 15:20N 33°12' E 030°23'411.3
2018-Apr-17 15:00N 33°15' E 030°20'611.3
2018-Apr-17 14:30N 33°19' E 030°15'611.4
2018-Apr-17 14:00N 33°23' E 030°11'611.3
2018-Apr-17 13:30N 33°27' E 030°06'611.2
2018-Apr-17 13:00N 33°32' E 030°02'511.2
2018-Apr-17 12:30N 33°36' E 029°57'611.1
2018-Apr-17 12:00N 33°40' E 029°53'1711.0
2018-Apr-17 10:30N 33°52' E 029°39'510.8
2018-Apr-17 10:00N 33°56' E 029°35'510.9
2018-Apr-17 09:30N 33°60' E 029°30'611.1
2018-Apr-17 09:00N 34°04' E 029°26'611.1
2018-Apr-17 08:30N 34°08' E 029°22'1511.3
2018-Apr-17 07:12N 34°19' E 029°10'211.4
2018-Apr-17 07:00N 34°21' E 029°08'611.2
2018-Apr-17 06:30N 34°25' E 029°03'23811.0
2018-Apr-16 08:51N 37°28' E 025°56'411.6
2018-Apr-16 08:30N 37°32' E 025°54'612.0
2018-Apr-16 08:00N 37°38' E 025°53'14211.2
2018-Apr-15 19:15N 40°01' E 026°03'  
2018-Apr-10 15:22N 45°04' E 030°54'411.4
2018-Apr-10 14:59N 45°08' E 030°56'3111.4
2018-Apr-10 12:16N 45°39' E 031°04'311.4
2018-Apr-10 12:00N 45°42' E 031°04'1111.4
2018-Apr-10 11:03N 45°53' E 031°04'211.5
2018-Apr-10 10:51N 45°55' E 031°04'411.6
2018-Apr-10 10:30N 45°59' E 031°04'911.2
2018-Apr-10 09:44N 46°08' E 031°04'211.2
2018-Apr-10 09:30N 46°09' E 031°01'611.3
2018-Apr-10 09:00N 46°14' E 030°56'1010.7
2018-Apr-10 08:02N 46°24' E 030°55'010.9
2018-Apr-10 08:00N 46°24' E 030°55'611.2
2018-Apr-10 07:30N 46°30' E 030°56'17 7.1
2018-Apr-10 05:06N 46°35' E 031°19'0 0.1
2018-Apr-10 04:51N 46°35' E 031°19'0 0.0
2018-Apr-10 03:21N 46°35' E 031°19'0 0.0
2018-Apr-10 03:00N 46°35' E 031°19'0 0.0
2018-Apr-10 02:21N 46°35' E 031°19'0 0.0
2018-Apr-10 01:57N 46°35' E 031°19'0 0.0
2018-Apr-10 01:27N 46°35' E 031°19'0 0.0
2018-Apr-09 22:27N 46°35' E 031°19'  

Dump ship's entire track history